Time;durP1;ratioP1;P1;durP2;ratioP2;P2;SDS_P1;SDS_P2;PMS_P1;PMS_P2;Temp;Humidity;BMP_temperature;BMP_pressure;BME280_temperature;BME280_humidity;BME280_pressure;Samples;Min_cycle;Max_cycle;Signal;HPM_P1;HPM_P2
2022/11/16 04:25:45;;;;;;;4.72;4.28;;;;;;;13.34;61.99;98163.09;5021740;28;20061;-61
2022/11/16 04:28:13;;;;;;;5.82;4.15;;;;;;;13.33;62.26;98162.25;5026010;28;20057;-60
2022/11/16 04:39:01;;;;;;;5.03;4.15;;;;;;;13.36;62.34;98172.53;5031570;28;20049;-62
2022/11/16 04:44:14;;;;;;;4.78;3.90;;;;;;;13.38;62.72;98169.75;5031655;28;20161;-62
2022/11/16 04:49:27;;;;;;;4.50;3.70;;;;;;;13.41;62.90;98169.44;5031565;28;20056;-61
2022/11/16 04:51:53;;;;;;;5.03;4.32;;;;;;;13.44;62.82;98182.38;5031431;28;20148;-61
2022/11/16 04:54:20;;;;;;;5.65;4.10;;;;;;;13.45;63.05;98180.56;5031878;28;20140;-61
2022/11/16 04:56:47;;;;;;;5.82;4.60;;;;;;;13.46;62.95;98174.31;5031415;28;20506;-61
2022/11/16 04:59:13;;;;;;;5.15;4.65;;;;;;;13.48;63.15;98177.66;5031505;28;20413;-62
2022/11/16 05:04:25;;;;;;;5.28;4.50;;;;;;;13.50;63.14;98171.25;5031327;28;20052;-61
2022/11/16 05:06:51;;;;;;;5.18;4.38;;;;;;;13.51;62.72;98170.28;5030845;28;20513;-61
2022/11/16 05:09:18;;;;;;;5.40;4.40;;;;;;;13.52;63.03;98169.31;5031293;28;20061;-61
2022/11/16 05:11:44;;;;;;;4.75;4.05;;;;;;;13.53;63.07;98170.16;5031182;28;20486;-62
2022/11/16 05:14:11;;;;;;;4.90;4.40;;;;;;;13.53;63.10;98165.66;5031381;28;20387;-62
2022/11/16 05:16:38;;;;;;;5.47;4.88;;;;;;;13.54;63.19;98171.81;5031054;28;20089;-61
2022/11/16 05:21:50;;;;;;;4.90;4.07;;;;;;;13.55;63.10;98158.44;5031363;28;20135;-61
2022/11/16 05:24:35;;;;;;;5.97;4.53;;;;;;;13.57;63.15;98168.84;5031275;28;20578;-61
2022/11/16 05:27:03;;;;;;;5.00;4.03;;;;;;;13.59;63.09;98171.34;5030929;28;20060;-62
2022/11/16 05:29:30;;;;;;;5.30;4.70;;;;;;;13.58;63.09;98165.25;5030970;28;20057;-61
2022/11/16 05:31:57;;;;;;;5.10;4.15;;;;;;;13.58;63.20;98170.53;5029703;28;20061;-61
2022/11/16 05:34:24;;;;;;;6.45;4.93;;;;;;;13.58;63.19;98173.19;5031095;28;20136;-61
2022/11/16 05:36:51;;;;;;;6.10;4.88;;;;;;;13.59;63.13;98174.00;5030955;28;20075;-61
2022/11/16 05:39:18;;;;;;;8.02;5.18;;;;;;;13.59;63.33;98177.47;5031275;28;20053;-62
2022/11/16 05:41:45;;;;;;;6.38;4.85;;;;;;;13.60;63.44;98173.03;5031091;28;20053;-61
2022/11/16 05:44:13;;;;;;;6.30;4.90;;;;;;;13.60;63.51;98176.50;5033952;28;20139;-61
2022/11/16 05:46:40;;;;;;;7.10;5.43;;;;;;;13.61;63.38;98174.69;5034872;28;20077;-61
2022/11/16 05:49:07;;;;;;;7.28;5.82;;;;;;;13.60;63.51;98181.78;5035124;28;20140;-61
2022/11/16 05:51:34;;;;;;;6.90;5.35;;;;;;;13.60;63.72;98179.13;5035249;28;20066;-61
2022/11/16 05:54:02;;;;;;;7.88;5.93;;;;;;;13.62;63.58;98185.13;5035244;28;20073;-61
2022/11/16 05:56:32;;;;;;;8.25;5.28;;;;;;;13.64;63.48;98187.63;5034854;28;20060;-62
2022/11/16 05:59:00;;;;;;;7.50;5.32;;;;;;;13.63;63.72;98191.22;5034755;28;20056;-61
2022/11/16 06:01:26;;;;;;;5.95;5.05;;;;;;;13.65;63.57;98194.56;5035067;28;20053;-61
2022/11/16 06:03:53;;;;;;;6.82;5.60;;;;;;;13.65;63.63;98197.22;5034770;28;20053;-63
2022/11/16 06:06:19;;;;;;;9.63;5.38;;;;;;;13.65;63.64;98202.50;5034758;28;20132;-62
2022/11/16 06:08:46;;;;;;;9.90;5.43;;;;;;;13.65;63.74;98203.31;5034699;28;20062;-61
2022/11/16 06:11:13;;;;;;;6.40;5.05;;;;;;;13.65;63.54;98210.44;5034657;28;20064;-61
2022/11/16 06:13:40;;;;;;;5.70;5.00;;;;;;;13.64;63.52;98203.50;5034578;28;20437;-62
2022/11/16 06:16:07;;;;;;;7.82;4.97;;;;;;;13.64;63.64;98196.38;5032935;28;20088;-60
2022/11/16 06:18:41;;;;;;;7.75;5.43;;;;;;;13.63;64.45;98204.44;5025896;28;20084;-61
2022/11/16 06:21:09;;;;;;;5.90;5.05;;;;;;;13.63;63.75;98202.66;5034534;28;20053;-61
2022/11/16 06:23:36;;;;;;;4.97;4.47;;;;;;;13.63;63.81;98207.09;5034603;28;20063;-62
2022/11/16 06:26:03;;;;;;;6.25;4.97;;;;;;;13.63;63.81;98210.56;5034640;28;20355;-62
2022/11/16 06:28:30;;;;;;;5.57;4.20;;;;;;;13.62;64.00;98219.50;5032380;28;20592;-61
2022/11/16 06:30:57;;;;;;;5.53;4.50;;;;;;;13.61;63.77;98207.22;5030360;28;20053;-60
2022/11/16 06:33:24;;;;;;;8.02;4.80;;;;;;;13.61;63.81;98217.00;5029118;28;20072;-62
2022/11/16 06:35:56;;;;;;;5.47;4.82;;;;;;;13.61;63.98;98223.09;5027788;28;20065;-61
2022/11/16 06:38:22;;;;;;;5.28;4.78;;;;;;;13.62;64.08;98229.22;5026575;28;20046;-61
2022/11/16 06:40:54;;;;;;;5.65;4.47;;;;;;;13.61;64.20;98223.09;5024607;28;20153;-62
2022/11/16 06:43:22;;;;;;;9.07;4.65;;;;;;;13.62;64.10;98237.16;5029855;28;20429;-63
2022/11/16 06:45:54;;;;;;;4.72;4.18;;;;;;;13.61;64.78;98233.66;5034057;28;20053;-62
2022/11/16 06:48:21;;;;;;;5.80;4.38;;;;;;;13.63;64.00;98237.03;5034015;28;20057;-61
2022/11/16 06:50:49;;;;;;;5.22;4.40;;;;;;;13.64;64.21;98235.22;5033985;28;20137;-63
2022/11/16 06:53:16;;;;;;;5.18;4.07;;;;;;;13.64;64.02;98237.88;5033804;28;20060;-62
2022/11/16 06:55:43;;;;;;;5.57;4.90;;;;;;;13.63;64.05;98242.31;5033040;28;20053;-62
2022/11/16 06:58:11;;;;;;;5.43;4.10;;;;;;;13.62;64.24;98245.09;5025063;28;20057;-61
2022/11/16 07:00:37;;;;;;;6.65;4.45;;;;;;;13.61;64.33;98235.50;5031250;28;20054;-62
2022/11/16 07:03:04;;;;;;;6.63;4.53;;;;;;;13.61;64.18;98246.06;5020291;28;20060;-62
2022/11/16 07:05:31;;;;;;;5.18;4.60;;;;;;;13.61;64.37;98249.53;5024944;28;20057;-63
2022/11/16 07:07:57;;;;;;;4.13;3.72;;;;;;;13.61;64.53;98244.25;5017637;28;20441;-62
2022/11/16 07:10:25;;;;;;;4.38;3.95;;;;;;;13.60;64.46;98253.16;5000200;28;20060;-62
2022/11/16 07:12:51;;;;;;;5.47;3.88;;;;;;;13.61;64.43;98254.00;5034116;28;20064;-62
2022/11/16 07:15:18;;;;;;;4.32;3.90;;;;;;;13.61;64.48;98251.38;5033435;28;20049;-62
2022/11/16 07:17:45;;;;;;;3.88;3.47;;;;;;;13.60;64.41;98253.16;5033277;28;20053;-63
2022/11/16 07:20:11;;;;;;;3.75;3.40;;;;;;;13.61;64.63;98251.38;5033140;28;20050;-62
2022/11/16 07:22:38;;;;;;;4.07;3.67;;;;;;;13.62;64.58;98256.50;5033447;28;20111;-62
2022/11/16 07:25:06;;;;;;;4.10;3.72;;;;;;;13.61;64.82;98261.94;5033173;28;20076;-63
2022/11/16 07:27:32;;;;;;;4.15;3.75;;;;;;;13.62;64.89;98258.31;5033320;28;20132;-61
2022/11/16 07:30:00;;;;;;;3.42;3.13;;;;;;;13.63;64.52;98268.75;5033379;28;20072;-61
2022/11/16 07:32:29;;;;;;;4.22;3.35;;;;;;;13.63;64.72;98260.81;5033229;28;20060;-63
2022/11/16 07:34:56;;;;;;;3.88;3.40;;;;;;;13.65;64.89;98266.78;5032574;28;20115;-62
2022/11/16 07:37:25;;;;;;;4.28;3.30;;;;;;;13.65;64.96;98261.50;5026692;28;20061;-62
2022/11/16 07:39:52;;;;;;;4.43;3.65;;;;;;;13.66;64.78;98268.47;5026312;28;20414;-61
2022/11/16 07:42:18;;;;;;;3.63;3.33;;;;;;;13.67;64.91;98275.41;5032928;28;20053;-62
2022/11/16 07:44:45;;;;;;;4.13;3.60;;;;;;;13.70;65.04;98273.44;5024619;28;20057;-62
2022/11/16 07:47:11;;;;;;;3.92;3.45;;;;;;;13.70;64.80;98274.28;5018513;28;20062;-62
2022/11/16 07:49:38;;;;;;;5.20;3.80;;;;;;;13.71;64.98;98285.72;5031201;28;20065;-61
2022/11/16 07:52:07;;;;;;;4.93;3.55;;;;;;;13.71;65.43;98291.00;5032765;28;20056;-62
2022/11/16 07:54:34;;;;;;;3.90;3.45;;;;;;;13.73;64.97;98292.53;5031334;28;20059;-61
2022/11/16 07:57:01;;;;;;;4.05;3.25;;;;;;;13.74;64.85;98295.97;5024659;28;20128;-65
2022/11/16 07:59:27;;;;;;;4.20;3.47;;;;;;;13.73;65.12;98307.53;5032665;28;20057;-61
2022/11/16 08:01:54;;;;;;;4.13;3.20;;;;;;;13.74;64.96;98304.75;5032628;28;20107;-61
2022/11/16 08:04:21;;;;;;;4.82;3.25;;;;;;;13.75;65.10;98316.19;5032611;28;20508;-62
2022/11/16 08:06:50;;;;;;;4.55;3.67;;;;;;;13.74;64.93;98304.75;5032454;28;20057;-62
2022/11/16 08:09:17;;;;;;;3.58;3.28;;;;;;;13.76;65.04;98299.31;5032791;28;20072;-61
2022/11/16 08:11:46;;;;;;;3.60;3.30;;;;;;;13.75;65.06;98301.13;5032428;28;20060;-62
2022/11/16 08:14:12;;;;;;;4.72;3.35;;;;;;;13.75;65.18;98309.06;5032465;28;20049;-62
2022/11/16 08:16:39;;;;;;;3.92;3.53;;;;;;;13.75;65.19;98311.72;5032095;28;20092;-62
2022/11/16 08:19:05;;;;;;;7.55;3.80;;;;;;;13.74;65.20;98310.03;5032215;28;20552;-63
2022/11/16 08:21:32;;;;;;;4.15;3.75;;;;;;;13.74;65.68;98311.84;5032596;28;20409;-62
2022/11/16 08:23:59;;;;;;;4.50;3.97;;;;;;;13.73;65.30;98308.38;5032508;28;20060;-61
2022/11/16 08:26:25;;;;;;;4.47;3.78;;;;;;;13.72;65.32;98314.63;5032250;28;20132;-61
2022/11/16 08:28:54;;;;;;;6.35;4.03;;;;;;;13.72;65.52;98324.38;5032020;28;20498;-63
2022/11/16 08:31:24;;;;;;;4.40;4.00;;;;;;;13.72;65.74;98337.63;5032124;28;20050;-62
2022/11/16 08:33:51;;;;;;;4.90;4.43;;;;;;;13.72;65.69;98337.63;5032022;28;20053;-62
2022/11/16 08:36:18;;;;;;;4.88;4.38;;;;;;;13.73;65.60;98331.34;5031953;28;20057;-62
2022/11/16 08:38:47;;;;;;;6.00;4.43;;;;;;;13.73;65.85;98344.56;5031813;28;20050;-62
2022/11/16 08:41:14;;;;;;;4.53;3.92;;;;;;;13.74;65.83;98346.22;5032037;28;20060;-61
2022/11/16 08:43:41;;;;;;;5.30;3.88;;;;;;;13.74;65.88;98343.56;5031772;28;20498;-63
2022/11/16 08:46:09;;;;;;;6.22;4.15;;;;;;;13.75;65.83;98345.28;5031876;28;20049;-62
2022/11/16 08:48:36;;;;;;;5.55;4.50;;;;;;;13.75;65.88;98346.09;5031869;28;20056;-61
2022/11/16 08:51:15;;;;;;;4.95;4.45;;;;;;;13.74;67.34;98346.22;5031860;28;20054;-61
2022/11/16 08:53:44;;;;;;;4.35;3.95;;;;;;;13.77;65.86;98356.53;5031728;28;20456;-62
2022/11/16 08:56:14;;;;;;;4.82;4.15;;;;;;;13.77;65.95;98349.44;5031442;28;20065;-61
2022/11/16 08:58:43;;;;;;;4.65;3.70;;;;;;;13.76;66.12;98344.28;5031887;28;20046;-62
2022/11/16 09:01:20;;;;;;;4.40;3.95;;;;;;;13.74;67.15;98354.16;5031393;28;20141;-62
2022/11/16 09:03:48;;;;;;;4.85;4.25;;;;;;;13.79;65.98;98354.56;5031623;28;20532;-61
2022/11/16 09:06:15;;;;;;;4.72;3.80;;;;;;;13.80;66.06;98358.91;5031268;28;20060;-64
2022/11/16 09:08:43;;;;;;;6.20;4.22;;;;;;;13.84;66.31;98354.13;5031348;28;20049;-62
2022/11/16 09:11:14;;;;;;;4.25;3.85;;;;;;;13.85;66.50;98356.66;5013852;28;20552;-62
2022/11/16 09:13:42;;;;;;;5.10;3.92;;;;;;;13.88;66.31;98359.00;5031673;28;20054;-63
2022/11/16 09:16:10;;;;;;;5.38;4.45;;;;;;;13.90;66.27;98359.69;5031280;28;20088;-63
2022/11/16 09:18:37;;;;;;;6.05;4.43;;;;;;;13.92;66.20;98360.41;5030960;28;20139;-62
2022/11/16 09:21:03;;;;;;;4.30;3.90;;;;;;;13.94;66.28;98357.56;5031360;28;20059;-62
2022/11/16 09:23:30;;;;;;;5.97;4.47;;;;;;;13.96;66.19;98358.28;5031614;28;20056;-63
2022/11/16 09:26:03;;;;;;;5.40;4.25;;;;;;;13.96;66.53;98360.94;5031310;28;20184;-63
2022/11/16 09:28:30;;;;;;;4.55;3.72;;;;;;;13.99;66.32;98354.50;5031480;28;20502;-63
2022/11/16 09:31:02;;;;;;;5.00;4.47;;;;;;;14.00;66.88;98364.09;5031260;28;20136;-62
2022/11/16 09:33:30;;;;;;;4.82;3.88;;;;;;;14.03;66.17;98361.19;5031117;28;20466;-61
2022/11/16 09:36:01;;;;;;;7.07;4.20;;;;;;;14.03;67.10;98364.69;5031261;28;20057;-62
2022/11/16 09:38:28;;;;;;;6.75;3.92;;;;;;;14.07;66.56;98365.22;5031074;28;20140;-62
2022/11/16 09:41:14;;;;;;;4.40;3.85;;;;;;;14.14;66.42;98381.34;5031178;28;20139;-62
2022/11/16 09:44:14;;;;;;;4.80;3.63;;;;;;;14.12;67.45;98380.63;5031181;28;20053;-63
2022/11/16 09:46:53;;;;;;;4.40;3.42;;;;;;;14.18;67.15;98386.22;5031124;28;20057;-62
2022/11/16 09:49:34;;;;;;;5.53;3.85;;;;;;;14.23;67.24;98392.84;5031313;28;20061;-62
2022/11/16 09:52:07;;;;;;;4.55;4.03;;;;;;;14.30;66.52;98397.44;5031167;28;20493;-62
2022/11/16 09:54:38;;;;;;;4.97;3.97;;;;;;;14.34;66.79;98408.56;5031061;28;20057;-62
2022/11/16 09:57:10;;;;;;;6.88;4.03;;;;;;;14.37;66.36;98403.00;5030733;28;20649;-63
2022/11/16 09:59:48;;;;;;;7.15;4.47;;;;;;;14.38;66.72;98409.94;5031190;28;20057;-62
2022/11/16 10:02:46;;;;;;;4.47;3.75;;;;;;;14.39;66.58;98414.25;5031198;28;20368;-61
2022/11/16 10:05:41;;;;;;;3.42;3.13;;;;;;;14.39;66.35;98414.25;5030412;28;20636;-60
2022/11/16 10:08:20;;;;;;;7.10;4.15;;;;;;;14.42;65.50;98418.41;5030988;28;20061;-63
2022/11/16 10:11:14;;;;;;;8.52;3.70;;;;;;;14.36;66.16;98417.22;5031014;28;20057;-61
2022/11/16 10:13:54;;;;;;;4.75;3.50;;;;;;;14.38;65.59;98423.19;5031111;28;20132;-61
2022/11/16 10:16:51;;;;;;;6.80;3.65;;;;;;;14.35;65.43;98420.81;5030690;28;20428;-62
2022/11/16 12:58:54;;;;;;;9.55;2.40;;;;;;;16.26;57.09;98361.59;5070400;23;20420;-62
2022/11/16 13:01:39;;;;;;;7.45;2.20;;;;;;;16.21;56.83;98358.59;5025767;28;20056;-62
2022/11/16 13:06:41;;;;;;;6.53;2.13;;;;;;;16.18;57.33;98358.91;5042690;22;20051;-62
2022/11/16 13:09:31;;;;;;;8.02;2.40;;;;;;;16.15;57.48;98354.75;5070829;28;20056;-62
2022/11/16 13:12:05;;;;;;;8.90;2.20;;;;;;;16.17;56.94;98361.72;5062786;28;20063;-61
2022/11/16 13:14:37;;;;;;;5.90;2.47;;;;;;;16.18;57.34;98355.44;5071061;28;20053;-63
2022/11/16 13:17:06;;;;;;;3.75;2.15;;;;;;;16.17;57.58;98351.09;5070547;28;20053;-62
2022/11/16 13:19:40;;;;;;;5.47;2.28;;;;;;;16.13;56.62;98350.59;5068946;28;20052;-64
2022/11/16 13:22:18;;;;;;;6.55;2.10;;;;;;;16.10;56.83;98349.09;5058875;28;20131;-62
2022/11/16 13:25:26;;;;;;;7.30;2.40;;;;;;;16.11;57.11;98345.44;5067839;28;20091;-61
2022/11/16 13:27:59;;;;;;;6.45;2.30;;;;;;;16.21;57.83;98344.47;5025542;28;20053;-63
2022/11/16 13:38:13;;;;;;;4.50;1.55;;;;;;;16.57;57.32;98325.69;4989012;28;20469;-84
2022/11/16 13:40:40;;;;;;;4.88;1.63;;;;;;;16.71;58.88;98321.56;4992973;28;20054;-81
2022/11/16 13:43:09;;;;;;;6.40;1.90;;;;;;;16.95;59.09;98317.31;4986287;28;20050;-79
2022/11/16 13:45:43;;;;;;;8.60;1.73;;;;;;;17.30;58.38;98315.34;4987462;28;20052;-82
2022/11/16 13:48:22;;;;;;;5.93;1.83;;;;;;;17.74;57.81;98312.47;4992036;28;20406;-85
2022/11/16 13:50:53;;;;;;;7.18;1.63;;;;;;;18.13;57.55;98314.38;5086066;23;20537;-79
2022/11/16 13:53:36;;;;;;;5.18;1.90;;;;;;;18.46;55.91;98319.56;5068010;28;20051;-78
2022/11/16 13:56:22;;;;;;;8.27;2.13;;;;;;;18.78;55.85;98327.56;5063950;28;20106;-79
2022/11/16 13:58:54;;;;;;;7.38;1.88;;;;;;;19.04;55.34;98320.22;5069242;28;20291;-78
2022/11/16 14:01:22;;;;;;;5.32;1.48;;;;;;;19.25;54.27;98328.41;5067233;28;20106;-79
2022/11/16 14:03:51;;;;;;;4.28;1.15;;;;;;;19.39;52.35;98324.13;5069913;28;20044;-79
2022/11/16 14:06:43;;;;;;;8.52;1.67;;;;;;;19.38;50.79;98329.63;5072884;28;20563;-79
2022/11/16 14:09:47;;;;;;;8.07;1.73;;;;;;;19.31;50.51;98324.19;5074218;28;20060;-78
2022/11/16 14:12:37;;;;;;;5.13;1.58;;;;;;;19.11;50.52;98326.53;5074109;28;20559;-79
2022/11/16 14:15:14;;;;;;;6.30;1.88;;;;;;;18.97;50.20;98309.44;5063559;28;20095;-78
2022/11/16 14:18:18;;;;;;;6.38;1.60;;;;;;;18.65;50.03;98322.78;5074364;28;20068;-78
2022/11/16 14:21:13;;;;;;;3.72;1.27;;;;;;;18.41;49.15;98313.94;5063724;28;20052;-78
2022/11/16 14:24:09;;;;;;;6.00;1.70;;;;;;;18.10;50.22;98320.06;5066142;28;20057;-78
2022/11/16 14:26:48;;;;;;;3.78;1.52;;;;;;;17.95;51.59;98317.25;5069795;28;20045;-78
2022/11/16 14:29:22;;;;;;;3.72;1.30;;;;;;;17.91;52.47;98314.06;5072488;28;20088;-77
2022/11/16 14:31:55;;;;;;;4.35;1.40;;;;;;;17.91;52.63;98315.94;5053743;28;20072;-78
2022/11/16 14:34:42;;;;;;;8.25;1.95;;;;;;;17.95;52.35;98311.91;5060299;28;20052;-78
2022/11/16 14:37:20;;;;;;;6.35;1.27;;;;;;;18.02;52.68;98307.56;5072875;28;20075;-78
2022/11/16 14:39:49;;;;;;;6.53;1.45;;;;;;;18.08;51.98;98306.91;5055465;28;20389;-76
2022/11/16 14:42:43;;;;;;;6.60;1.48;;;;;;;18.03;51.00;98308.41;5071908;28;20515;-76
2022/11/16 14:45:31;;;;;;;5.35;1.70;;;;;;;18.04;51.31;98308.22;5056505;28;20642;-76
2022/11/16 14:48:16;;;;;;;8.23;1.60;;;;;;;17.93;50.70;98304.09;5068960;28;20140;-76
2022/11/16 14:50:45;;;;;;;6.03;1.70;;;;;;;17.86;51.02;98307.63;5062181;28;20053;-77
2022/11/16 14:53:16;;;;;;;4.45;1.88;;;;;;;17.73;50.91;98310.81;5072546;28;20056;-76
2022/11/16 14:55:45;;;;;;;5.00;1.90;;;;;;;17.61;51.09;98305.00;5051995;28;20098;-78
2022/11/16 14:58:21;;;;;;;4.15;1.52;;;;;;;17.42;50.49;98307.03;5052781;28;20056;-81
2022/11/16 15:00:59;;;;;;;4.78;1.70;;;;;;;17.25;50.40;98307.03;5071015;28;20407;-79
2022/11/16 15:03:30;;;;;;;4.40;1.60;;;;;;;17.14;50.80;98307.38;5071476;28;20055;-79
2022/11/16 15:05:59;;;;;;;5.60;1.33;;;;;;;16.93;50.55;98309.50;5070616;28;20401;-78
2022/11/16 15:08:34;;;;;;;3.08;1.33;;;;;;;16.73;50.46;98303.66;5071903;28;20500;-78
2022/11/16 15:11:01;;;;;;;6.20;1.38;;;;;;;16.60;50.92;98311.25;5056591;28;20083;-77
2022/11/16 15:13:28;;;;;;;4.15;1.45;;;;;;;16.42;51.24;98317.53;5056170;28;20060;-78
2022/11/16 15:16:16;;;;;;;6.03;1.58;;;;;;;16.19;51.81;98312.81;5051374;28;20057;-78
2022/11/16 15:18:59;;;;;;;1.90;0.90;;;;;;;16.01;51.66;98305.72;5051465;28;20076;-78
2022/11/16 15:21:27;;;;;;;2.78;1.13;;;;;;;15.92;51.64;98300.53;5050120;28;20061;-78
2022/11/16 15:23:55;;;;;;;4.72;1.50;;;;;;;15.78;51.95;98297.47;5051598;28;20098;-78
2022/11/16 15:26:42;;;;;;;5.38;1.23;;;;;;;15.63;52.13;98302.53;5068664;28;20180;-77
2022/11/16 15:29:15;;;;;;;4.07;1.25;;;;;;;15.46;51.96;98304.22;5051788;28;20107;-78
2022/11/16 15:31:42;;;;;;;2.47;1.23;;;;;;;15.36;52.49;98299.00;5051590;28;20563;-78
2022/11/16 15:34:18;;;;;;;2.88;1.05;;;;;;;15.19;52.89;98301.56;5051718;28;20053;-77
2022/11/16 15:36:46;;;;;;;2.10;0.90;;;;;;;15.11;52.62;98304.16;5051053;28;20420;-78
2022/11/16 15:39:18;;;;;;;4.38;1.20;;;;;;;14.96;52.94;98303.84;5068464;28;20419;-78
2022/11/16 15:41:45;;;;;;;1.83;1.15;;;;;;;14.87;52.64;98302.94;5070760;28;20052;-78
2022/11/16 15:44:14;;;;;;;5.13;1.58;;;;;;;14.75;53.13;98312.88;5053817;28;20064;-77
2022/11/16 15:46:46;;;;;;;3.22;1.15;;;;;;;14.64;53.32;98313.09;5061317;28;20118;-77
2022/11/16 15:49:38;;;;;;;3.13;1.15;;;;;;;14.51;53.44;98305.53;5051316;28;20065;-77
2022/11/16 15:52:05;;;;;;;3.30;1.40;;;;;;;14.42;53.56;98309.88;5051305;28;20504;-77
2022/11/16 15:57:22;;;;;;;2.53;1.27;;;;;;;14.16;53.86;98315.84;5070697;28;20056;-77
2022/11/16 15:59:50;;;;;;;3.75;1.38;;;;;;;14.02;53.69;98315.38;5049805;28;20060;-78
2022/11/16 16:02:19;;;;;;;3.03;1.40;;;;;;;13.90;54.04;98314.72;5069633;28;20056;-77
2022/11/16 16:04:45;;;;;;;3.45;1.50;;;;;;;13.79;54.32;98313.09;5062866;28;20218;-77
2022/11/16 16:07:36;;;;;;;5.50;1.70;;;;;;;13.59;55.04;98312.31;5071075;28;20405;-76
2022/11/16 16:10:17;;;;;;;2.50;1.58;;;;;;;13.49;55.34;98306.22;5063923;28;20060;-79
2022/11/16 16:12:55;;;;;;;3.35;1.70;;;;;;;13.38;55.48;98302.72;5071142;28;20518;-79
2022/11/16 16:15:23;;;;;;;4.78;1.75;;;;;;;13.36;55.26;98303.84;5069567;28;20056;-77
2022/11/16 16:17:51;;;;;;;6.47;1.92;;;;;;;13.28;55.38;98308.00;5070285;28;20052;-78
2022/11/16 16:20:20;;;;;;;3.65;1.70;;;;;;;13.22;55.61;98307.72;5069349;28;20056;-77
2022/11/16 16:22:47;;;;;;;3.97;2.20;;;;;;;13.17;55.88;98310.81;5070431;28;20141;-77
2022/11/16 16:25:33;;;;;;;4.18;1.50;;;;;;;13.09;56.53;98302.75;5061538;28;20076;-77
2022/11/16 16:27:59;;;;;;;6.25;1.85;;;;;;;13.11;55.91;98295.50;5068499;28;20056;-78
2022/11/16 16:30:30;;;;;;;6.18;1.77;;;;;;;13.05;56.06;98278.44;5069497;28;20091;-77
2022/11/16 16:32:58;;;;;;;4.10;1.60;;;;;;;13.03;55.87;98288.28;5069176;28;20048;-77
2022/11/16 16:35:25;;;;;;;3.53;1.40;;;;;;;12.96;56.01;98282.72;5051292;28;20135;-78
2022/11/16 16:38:02;;;;;;;3.40;1.70;;;;;;;12.87;56.21;98284.38;5068910;28;20504;-78
2022/11/16 16:40:28;;;;;;;3.63;1.85;;;;;;;12.84;55.93;98275.91;5052297;28;20064;-77
2022/11/16 16:42:56;;;;;;;5.18;1.77;;;;;;;12.76;56.01;98282.72;5053057;28;20512;-79
2022/11/16 16:45:37;;;;;;;8.02;2.35;;;;;;;12.66;56.71;98278.41;5070350;28;20738;-77
2022/11/16 16:48:04;;;;;;;7.85;2.10;;;;;;;12.61;56.30;98273.56;5070414;28;20110;-77
2022/11/16 16:50:31;;;;;;;4.07;1.67;;;;;;;12.55;56.49;98276.72;5070185;28;20053;-78
2022/11/16 16:52:57;;;;;;;4.15;2.03;;;;;;;12.49;56.74;98271.03;5070612;28;20074;-78
2022/11/16 16:55:24;;;;;;;4.85;1.95;;;;;;;12.45;56.80;98264.34;5070395;28;20053;-77
2022/11/16 16:57:52;;;;;;;6.55;1.85;;;;;;;12.41;56.84;98262.13;5070103;28;20550;-78
2022/11/16 17:00:19;;;;;;;4.55;1.70;;;;;;;12.35;56.99;98264.34;5070302;28;20052;-77
2022/11/16 17:02:45;;;;;;;7.78;2.20;;;;;;;12.32;57.13;98267.25;5070413;28;20045;-77
2022/11/16 17:05:12;;;;;;;6.55;1.92;;;;;;;12.28;57.11;98260.59;5070182;28;20099;-78
2022/11/16 17:07:40;;;;;;;3.78;1.95;;;;;;;12.24;57.29;98262.66;5070385;28;20049;-77
2022/11/16 17:10:07;;;;;;;4.60;1.58;;;;;;;12.21;57.31;98252.38;5070467;28;20146;-78
2022/11/16 17:12:33;;;;;;;6.55;1.83;;;;;;;12.18;57.41;98246.56;5070385;28;20060;-77
2022/11/16 17:15:00;;;;;;;7.15;2.20;;;;;;;12.15;57.39;98244.19;5070132;28;20060;-77
2022/11/16 17:17:36;;;;;;;4.68;1.90;;;;;;;12.09;57.89;98249.03;5067725;28;20072;-76
2022/11/16 17:20:04;;;;;;;4.63;2.05;;;;;;;12.09;57.53;98251.66;5078756;28;20080;-82
2022/11/16 17:22:32;;;;;;;9.80;2.00;;;;;;;12.05;57.58;98242.34;5051514;28;20052;-84
2022/11/16 17:24:58;;;;;;;9.35;2.08;;;;;;;12.02;57.53;98239.94;5069461;28;20510;-82
2022/11/16 17:27:25;;;;;;;7.63;2.58;;;;;;;12.00;57.57;98247.13;5068128;28;20482;-82
2022/11/16 17:29:51;;;;;;;5.75;2.00;;;;;;;11.96;57.75;98249.22;5069511;28;20052;-85
2022/11/16 17:32:18;;;;;;;7.00;1.98;;;;;;;11.94;57.77;98245.06;5069714;28;20143;-84
2022/11/16 17:34:44;;;;;;;6.90;2.65;;;;;;;11.93;57.91;98238.13;5032993;28;20501;-84
2022/11/16 17:37:12;;;;;;;5.30;2.60;;;;;;;11.89;58.09;98234.06;5063395;28;20052;-84
2022/11/16 17:39:39;;;;;;;9.23;2.78;;;;;;;11.86;58.29;98237.81;5053675;28;20135;-84
2022/11/16 17:42:05;;;;;;;7.35;2.67;;;;;;;11.84;58.51;98229.19;5073731;28;20052;-83
2022/11/16 17:44:32;;;;;;;7.35;2.97;;;;;;;11.81;58.51;98222.38;5073624;28;20439;-83
2022/11/16 17:46:58;;;;;;;5.70;3.00;;;;;;;11.80;58.58;98223.38;5073586;28;20098;-83
2022/11/16 17:49:25;;;;;;;7.03;3.05;;;;;;;11.76;58.71;98221.13;5055535;28;20049;-84
2022/11/16 17:51:51;;;;;;;8.52;3.75;;;;;;;11.73;58.76;98232.75;5074119;28;20064;-85
2022/11/16 17:54:18;;;;;;;7.18;3.75;;;;;;;11.70;58.84;98233.88;5074266;28;20048;-85
2022/11/16 17:56:44;;;;;;;4.70;3.22;;;;;;;11.66;58.89;98219.28;5056113;28;20056;-85
2022/11/16 17:59:11;;;;;;;10.75;3.85;;;;;;;11.64;59.11;98220.38;5074209;28;20068;-85
2022/11/16 18:01:38;;;;;;;7.90;3.67;;;;;;;11.60;59.19;98219.81;5074205;28;20059;-84
2022/11/16 18:04:04;;;;;;;7.22;3.30;;;;;;;11.56;59.28;98221.06;5074064;28;20499;-88
2022/11/16 18:06:32;;;;;;;7.03;3.13;;;;;;;11.53;59.55;98226.56;5073847;28;20048;-86
2022/11/16 18:08:58;;;;;;;8.02;3.00;;;;;;;11.50;59.52;98221.56;5073979;28;20147;-86
2022/11/16 18:11:26;;;;;;;8.38;3.63;;;;;;;11.47;59.64;98227.94;5055922;28;20072;-84
2022/11/16 18:13:54;;;;;;;9.95;3.38;;;;;;;11.45;59.71;98221.97;5073821;28;20056;-85
2022/11/16 18:16:24;;;;;;;6.82;3.20;;;;;;;11.42;59.98;98224.88;5056017;28;20044;-87
2022/11/16 18:18:59;;;;;;;10.20;3.63;;;;;;;11.37;60.66;98227.91;5073725;28;20144;-87
2022/11/16 18:21:26;;;;;;;8.85;3.40;;;;;;;11.37;59.69;98221.78;5073595;28;20519;-83
2022/11/16 18:23:52;;;;;;;7.90;3.85;;;;;;;11.32;59.69;98219.53;5073638;28;20753;-84
2022/11/16 18:26:21;;;;;;;10.13;4.28;;;;;;;11.27;59.99;98214.69;5073351;28;20067;-87
2022/11/16 18:28:49;;;;;;;6.45;3.88;;;;;;;11.22;59.98;98230.03;5073627;28;20048;-85
2022/11/16 18:31:20;;;;;;;12.20;4.72;;;;;;;11.17;60.27;98226.94;5071838;28;20052;-85
2022/11/16 18:33:50;;;;;;;8.52;3.85;;;;;;;11.13;60.05;98225.53;5054262;28;20105;-86
2022/11/16 18:36:19;;;;;;;8.43;4.47;;;;;;;11.07;60.31;98232.97;5047296;28;20240;-87
2022/11/16 18:38:45;;;;;;;7.53;4.00;;;;;;;11.03;60.34;98225.47;5058953;28;20462;-85
2022/11/16 18:41:12;;;;;;;10.82;4.40;;;;;;;10.97;60.49;98221.56;5067013;28;20420;-85
2022/11/16 18:43:39;;;;;;;8.48;4.32;;;;;;;10.92;60.47;98216.66;5065707;28;20053;-85
2022/11/16 18:46:05;;;;;;;10.68;5.00;;;;;;;10.89;60.67;98218.72;5059133;28;20099;-85
2022/11/16 18:48:34;;;;;;;9.95;4.80;;;;;;;10.82;61.36;98216.63;5034592;28;20053;-84
2022/11/16 18:51:03;;;;;;;10.90;5.30;;;;;;;10.79;61.02;98213.38;5051231;28;20060;-85
2022/11/16 18:53:30;;;;;;;10.52;5.35;;;;;;;10.74;60.96;98208.53;5052724;28;20060;-84
2022/11/16 18:55:57;;;;;;;8.82;5.35;;;;;;;10.71;60.99;98205.28;5034844;28;20188;-85
2022/11/16 18:58:25;;;;;;;11.13;5.07;;;;;;;10.67;61.19;98215.25;5064384;28;20063;-84
2022/11/16 19:01:13;;;;;;;11.70;6.35;;;;;;;10.61;61.59;98208.69;5064939;28;20156;-85
2022/11/16 19:03:40;;;;;;;10.00;7.03;;;;;;;10.58;61.34;98205.47;5071689;28;20102;-82
2022/11/16 19:06:09;;;;;;;11.18;6.50;;;;;;;10.52;61.90;98206.81;5066764;28;20055;-84
2022/11/16 19:08:37;;;;;;;12.85;7.53;;;;;;;10.51;61.77;98218.31;5068746;28;20059;-83
2022/11/16 19:11:15;;;;;;;12.20;7.47;;;;;;;10.43;62.94;98214.47;5053629;28;20060;-84
2022/11/16 19:13:43;;;;;;;12.95;7.53;;;;;;;10.45;62.05;98210.91;5069816;28;20057;-85
2022/11/16 19:16:12;;;;;;;14.13;8.77;;;;;;;10.41;62.52;98210.28;5046237;28;20096;-84
2022/11/16 19:18:38;;;;;;;13.32;9.68;;;;;;;10.41;62.53;98207.66;5071235;28;20075;-85
2022/11/16 19:21:07;;;;;;;14.75;9.55;;;;;;;10.38;62.77;98205.28;5067031;28;20056;-83
2022/11/16 19:23:35;;;;;;;14.60;8.98;;;;;;;10.38;62.75;98197.38;5069154;28;20045;-80
2022/11/16 19:26:03;;;;;;;12.85;9.10;;;;;;;10.37;63.04;98196.56;5052596;28;20164;-82